Time;durP1;ratioP1;P1;durP2;ratioP2;P2;SDS_P1;SDS_P2;PMS_P1;PMS_P2;Temp;Humidity;BMP_temperature;BMP_pressure;BME280_temperature;BME280_humidity;BME280_pressure;Samples;Min_cycle;Max_cycle;Signal;HPM_P1;HPM_P2
2022/09/13 00:00:09;;;;;;;;;;;;;;;;;;1021972;29;20379;-72
2022/09/13 00:00:40;;;;;;;;;;;;;;;;;;1022039;29;19981;-73
2022/09/13 00:01:10;;;;;;;;;;;;;;;;;;1022087;29;20479;-72
2022/09/13 00:01:40;;;;;;;;;;;;;;;;;;1022233;28;19910;-72
2022/09/13 00:02:11;;;;;;;;;;;;;;;;;;1026114;28;19968;-72
2022/09/13 00:02:41;;;;;;;;;;;;;;;;;;1025888;28;19993;-72
2022/09/13 00:03:11;;;;;;;;;;;;;;;;;;1021717;29;19910;-72
2022/09/13 00:03:42;;;;;;;;;;;;;;;;;;1021899;29;19910;-72
2022/09/13 00:04:12;;;;;;;;;;;;;;;;;;1021889;29;20013;-72
2022/09/13 00:04:42;;;;;;;;;;;;;;;;;;1022022;29;19966;-72
2022/09/13 00:05:12;;;;;;;;;;;;;;;;;;1025678;28;20282;-72
2022/09/13 00:05:43;;;;;;;;;;;;;;;;;;1026174;28;19945;-72
2022/09/13 00:06:13;;;;;;;;;;;;;;;;;;1026097;28;20290;-72
2022/09/13 00:06:43;;;;;;;;;;;;;;;;;;1022017;29;19910;-72
2022/09/13 00:07:13;;;;;;;;;;;;;;;;;;1021627;29;19910;-72
2022/09/13 00:07:44;;;;;;;;;;;;;;;;;;1021964;29;19917;-72
2022/09/13 00:08:14;;;;;;;;;;;;;;;;;;1021827;29;19970;-72
2022/09/13 00:08:44;;;;;;;;;;;;;;;;;;1026250;28;19956;-72
2022/09/13 00:09:14;;;;;;;;;;;;;;;;;;1021765;29;20118;-72
2022/09/13 00:09:45;;;;;;;;;;;;;;;;;;1021981;29;19933;-72
2022/09/13 00:10:15;;;;;;;;;;;;;;;;;;1021781;29;20013;-72
2022/09/13 00:10:45;;;;;;;;;;;;;;;;;;1022469;28;19934;-72
2022/09/13 00:11:16;;;;;;;;;;;;;;;;;;1021939;29;20001;-72
2022/09/13 00:11:46;;;;;;;;;;;;;;;;;;1021934;28;19911;-72
2022/09/13 00:12:16;;;;;;;;;;;;;;;;;;1021762;28;19911;-72
2022/09/13 00:12:47;;;;;;;;;;;;;;;;;;1026054;28;19910;-72
2022/09/13 00:13:17;;;;;;;;;;;;;;;;;;1026182;28;19917;-72
2022/09/13 00:13:48;;;;;;;;;;;;;;;;;;1026148;28;20325;-72
2022/09/13 00:14:18;;;;;;;;;;;;;;;;;;1026100;28;20313;-72
2022/09/13 00:14:48;;;;;;;;;;;;;;;;;;1026089;28;19910;-72
2022/09/13 00:15:19;;;;;;;;;;;;;;;;;;1026219;28;19917;-72
2022/09/13 00:15:49;;;;;;;;;;;;;;;;;;1026527;28;19909;-72
2022/09/13 00:16:19;;;;;;;;;;;;;;;;;;1025485;28;20000;-72
2022/09/13 00:16:49;;;;;;;;;;;;;;;;;;1025848;28;19914;-72
2022/09/13 00:17:20;;;;;;;;;;;;;;;;;;1025841;28;19937;-72
2022/09/13 00:17:50;;;;;;;;;;;;;;;;;;1025565;28;19910;-72
2022/09/13 00:18:21;;;;;;;;;;;;;;;;;;1025833;28;19961;-72
2022/09/13 00:18:51;;;;;;;;;;;;;;;;;;1021834;29;20306;-72
2022/09/13 00:19:21;;;;;;;;;;;;;;;;;;1021939;29;19914;-72
2022/09/13 00:19:51;;;;;;;;;;;;;;;;;;1022004;29;19914;-72
2022/09/13 00:20:22;;;;;;;;;;;;;;;;;;1021858;29;19917;-72
2022/09/13 00:20:52;;;;;;;;;;;;;;;;;;1026019;28;19909;-72
2022/09/13 00:21:22;;;;;;;;;;;;;;;;;;1026057;28;19933;-72
2022/09/13 00:21:53;;;;;;;;;;;;;;;;;;1027929;28;19910;-73
2022/09/13 00:22:23;;;;;;;;;;;;;;;;;;1025499;28;20286;-72
2022/09/13 00:22:53;;;;;;;;;;;;;;;;;;1026133;28;19961;-72
2022/09/13 00:23:23;;;;;;;;;;;;;;;;;;1026205;28;19910;-72
2022/09/13 00:23:54;;;;;;;;;;;;;;;;;;1026119;28;20353;-72
2022/09/13 00:24:24;;;;;;;;;;;;;;;;;;1026200;28;19910;-72
2022/09/13 00:24:54;;;;;;;;;;;;;;;;;;1025727;28;19993;-72
2022/09/13 00:25:24;;;;;;;;;;;;;;;;;;1021802;29;19914;-72
2022/09/13 00:25:55;;;;;;;;;;;;;;;;;;1019768;29;19938;-72
2022/09/13 00:26:25;;;;;;;;;;;;;;;;;;1019921;29;19950;-72
2022/09/13 00:26:55;;;;;;;;;;;;;;;;;;1021691;29;19967;-72
2022/09/13 00:27:25;;;;;;;;;;;;;;;;;;1020112;29;19910;-72
2022/09/13 00:27:56;;;;;;;;;;;;;;;;;;1026078;28;19956;-72
2022/09/13 00:28:26;;;;;;;;;;;;;;;;;;1026573;28;19914;-72
2022/09/13 00:28:56;;;;;;;;;;;;;;;;;;1021785;29;19993;-72
2022/09/13 00:29:27;;;;;;;;;;;;;;;;;;1023775;29;19914;-72
2022/09/13 00:29:57;;;;;;;;;;;;;;;;;;1024241;29;20391;-72
2022/09/13 00:30:27;;;;;;;;;;;;;;;;;;1024307;29;19914;-72
2022/09/13 00:30:58;;;;;;;;;;;;;;;;;;1027752;28;20374;-72
2022/09/13 00:31:28;;;;;;;;;;;;;;;;;;1022237;29;19911;-72
2022/09/13 00:31:58;;;;;;;;;;;;;;;;;;1022282;29;20521;-72
2022/09/13 00:32:29;;;;;;;;;;;;;;;;;;1021983;29;19910;-72
2022/09/13 00:33:03;;;;;;;;;;;;;;;;;;1022173;29;19958;-72
2022/09/13 00:33:33;;;;;;;;;;;;;;;;;;1026367;28;20061;-72
2022/09/13 00:34:03;;;;;;;;;;;;;;;;;;1026083;28;19910;-73
2022/09/13 00:34:34;;;;;;;;;;;;;;;;;;1026355;28;19953;-72
2022/09/13 00:35:04;;;;;;;;;;;;;;;;;;1025771;28;19911;-72
2022/09/13 00:35:34;;;;;;;;;;;;;;;;;;1026330;28;20385;-72
2022/09/13 00:36:05;;;;;;;;;;;;;;;;;;1026272;28;19911;-72
2022/09/13 00:36:35;;;;;;;;;;;;;;;;;;1021659;29;19910;-72
2022/09/13 00:37:05;;;;;;;;;;;;;;;;;;1021783;29;19914;-72
2022/09/13 00:37:35;;;;;;;;;;;;;;;;;;1021670;29;20314;-72
2022/09/13 00:38:06;;;;;;;;;;;;;;;;;;1023571;28;20000;-72
2022/09/13 00:38:36;;;;;;;;;;;;;;;;;;1023851;29;19942;-72
2022/09/13 00:39:06;;;;;;;;;;;;;;;;;;1023680;29;20793;-72
2022/09/13 00:39:37;;;;;;;;;;;;;;;;;;1027974;28;19921;-72
2022/09/13 00:40:07;;;;;;;;;;;;;;;;;;1025862;28;20370;-72
2022/09/13 00:40:37;;;;;;;;;;;;;;;;;;1026213;28;19917;-72
2022/09/13 00:41:07;;;;;;;;;;;;;;;;;;1025404;28;20065;-72
2022/09/13 00:41:38;;;;;;;;;;;;;;;;;;1025752;28;20361;-72
2022/09/13 00:42:08;;;;;;;;;;;;;;;;;;1024578;28;19993;-72
2022/09/13 00:42:38;;;;;;;;;;;;;;;;;;1021485;29;19954;-72
2022/09/13 00:43:09;;;;;;;;;;;;;;;;;;1022380;29;19947;-72
2022/09/13 00:43:39;;;;;;;;;;;;;;;;;;1021938;29;19918;-72
2022/09/13 00:44:10;;;;;;;;;;;;;;;;;;1022137;29;19915;-72
2022/09/13 00:44:40;;;;;;;;;;;;;;;;;;1021826;29;19914;-72
2022/09/13 00:45:11;;;;;;;;;;;;;;;;;;1021653;29;20456;-72
2022/09/13 00:45:41;;;;;;;;;;;;;;;;;;1021737;29;19957;-72
2022/09/13 00:46:11;;;;;;;;;;;;;;;;;;1021782;29;20005;-72
2022/09/13 00:46:41;;;;;;;;;;;;;;;;;;1021886;29;20411;-72
2022/09/13 00:47:12;;;;;;;;;;;;;;;;;;1021446;28;19946;-72
2022/09/13 00:47:42;;;;;;;;;;;;;;;;;;1025554;28;19918;-72
2022/09/13 00:48:12;;;;;;;;;;;;;;;;;;1025489;28;20436;-72
2022/09/13 00:48:43;;;;;;;;;;;;;;;;;;1026073;28;19914;-72
2022/09/13 00:49:13;;;;;;;;;;;;;;;;;;1025854;28;20520;-72
2022/09/13 00:49:43;;;;;;;;;;;;;;;;;;1026182;28;19917;-72
2022/09/13 00:50:13;;;;;;;;;;;;;;;;;;1025554;28;19917;-72
2022/09/13 00:50:44;;;;;;;;;;;;;;;;;;1025418;28;19969;-72
2022/09/13 00:51:14;;;;;;;;;;;;;;;;;;1025844;28;19910;-72
2022/09/13 00:51:44;;;;;;;;;;;;;;;;;;1021804;29;19927;-72
2022/09/13 00:52:14;;;;;;;;;;;;;;;;;;1021530;29;19936;-72
2022/09/13 00:52:45;;;;;;;;;;;;;;;;;;1021766;29;20001;-72
2022/09/13 00:53:15;;;;;;;;;;;;;;;;;;1020106;29;19911;-72
2022/09/13 00:53:45;;;;;;;;;;;;;;;;;;1022668;29;20374;-72
2022/09/13 00:54:16;;;;;;;;;;;;;;;;;;1021327;29;20461;-72
2022/09/13 00:54:46;;;;;;;;;;;;;;;;;;1020959;29;19945;-72
2022/09/13 00:55:16;;;;;;;;;;;;;;;;;;1026477;28;19910;-72
2022/09/13 00:55:46;;;;;;;;;;;;;;;;;;1025848;28;20053;-72
2022/09/13 00:56:17;;;;;;;;;;;;;;;;;;1025784;28;20008;-72
2022/09/13 00:56:47;;;;;;;;;;;;;;;;;;1025437;28;19910;-73
2022/09/13 00:57:17;;;;;;;;;;;;;;;;;;1025927;28;19929;-72
2022/09/13 00:57:48;;;;;;;;;;;;;;;;;;1021614;29;19910;-72
2022/09/13 00:58:18;;;;;;;;;;;;;;;;;;1021791;29;19910;-72
2022/09/13 00:58:48;;;;;;;;;;;;;;;;;;1021511;29;19917;-72
2022/09/13 00:59:18;;;;;;;;;;;;;;;;;;1021578;28;19915;-72
2022/09/13 00:59:49;;;;;;;;;;;;;;;;;;1026058;28;19961;-72
2022/09/13 01:00:19;;;;;;;;;;;;;;;;;;1026094;28;19910;-72
2022/09/13 01:00:49;;;;;;;;;;;;;;;;;;1021132;29;20005;-72
2022/09/13 01:01:19;;;;;;;;;;;;;;;;;;1021465;29;19914;-71
2022/09/13 01:01:50;;;;;;;;;;;;;;;;;;1021129;29;19915;-71
2022/09/13 01:02:20;;;;;;;;;;;;;;;;;;1023526;28;20394;-71
2022/09/13 01:02:50;;;;;;;;;;;;;;;;;;1025520;28;19914;-71
2022/09/13 01:03:21;;;;;;;;;;;;;;;;;;1028417;28;20053;-71
2022/09/13 01:03:51;;;;;;;;;;;;;;;;;;1029569;28;19921;-71
2022/09/13 01:04:21;;;;;;;;;;;;;;;;;;1025694;28;19914;-72
2022/09/13 01:04:51;;;;;;;;;;;;;;;;;;1024206;28;19914;-72
2022/09/13 01:05:22;;;;;;;;;;;;;;;;;;1020083;29;20438;-72
2022/09/13 01:05:52;;;;;;;;;;;;;;;;;;1022825;29;19925;-72
2022/09/13 01:06:22;;;;;;;;;;;;;;;;;;1021496;29;19914;-72
2022/09/13 01:06:52;;;;;;;;;;;;;;;;;;1021421;29;20119;-72
2022/09/13 01:07:23;;;;;;;;;;;;;;;;;;1025832;28;19914;-72
2022/09/13 01:07:53;;;;;;;;;;;;;;;;;;1026440;28;19926;-72
2022/09/13 01:08:23;;;;;;;;;;;;;;;;;;1026147;28;19941;-72
2022/09/13 01:08:55;;;;;;;;;;;;;;;;;;1022380;29;19965;-72
2022/09/13 01:09:25;;;;;;;;;;;;;;;;;;1021643;29;19910;-72
2022/09/13 01:09:55;;;;;;;;;;;;;;;;;;1022237;29;20009;-71
2022/09/13 01:10:26;;;;;;;;;;;;;;;;;;1022019;29;19911;-72
2022/09/13 01:10:57;;;;;;;;;;;;;;;;;;1025686;28;19917;-72
2022/09/13 01:11:27;;;;;;;;;;;;;;;;;;1021401;29;19986;-72
2022/09/13 01:11:58;;;;;;;;;;;;;;;;;;1021771;29;19918;-72
2022/09/13 01:12:30;;;;;;;;;;;;;;;;;;1021616;29;19914;-72
2022/09/13 01:13:01;;;;;;;;;;;;;;;;;;1021313;29;19917;-72
2022/09/13 01:13:32;;;;;;;;;;;;;;;;;;1021521;29;20001;-72
2022/09/13 01:14:02;;;;;;;;;;;;;;;;;;1021822;29;19933;-72
2022/09/13 01:14:32;;;;;;;;;;;;;;;;;;1019947;29;19918;-72
2022/09/13 01:15:03;;;;;;;;;;;;;;;;;;1021565;28;19941;-72
2022/09/13 01:15:33;;;;;;;;;;;;;;;;;;1022386;29;19910;-72
2022/09/13 01:16:03;;;;;;;;;;;;;;;;;;1023541;29;19910;-72
2022/09/13 01:16:33;;;;;;;;;;;;;;;;;;1021060;29;19962;-72
2022/09/13 01:17:04;;;;;;;;;;;;;;;;;;1023220;28;19978;-72
2022/09/13 01:17:34;;;;;;;;;;;;;;;;;;1025898;28;19917;-72
2022/09/13 01:18:04;;;;;;;;;;;;;;;;;;1025081;28;19910;-72
2022/09/13 01:18:35;;;;;;;;;;;;;;;;;;1025707;28;19910;-72
2022/09/13 01:19:05;;;;;;;;;;;;;;;;;;1024864;28;19914;-72
2022/09/13 01:19:35;;;;;;;;;;;;;;;;;;1023870;28;20394;-73
2022/09/13 01:20:05;;;;;;;;;;;;;;;;;;1025240;28;19970;-73
2022/09/13 01:20:36;;;;;;;;;;;;;;;;;;1025467;28;20373;-72
2022/09/13 01:21:06;;;;;;;;;;;;;;;;;;1021163;29;20029;-73
2022/09/13 01:21:36;;;;;;;;;;;;;;;;;;1021781;29;19954;-73
2022/09/13 01:22:07;;;;;;;;;;;;;;;;;;1021416;29;20292;-73
2022/09/13 01:22:37;;;;;;;;;;;;;;;;;;1021376;29;20017;-73
2022/09/13 01:23:08;;;;;;;;;;;;;;;;;;1021902;28;19926;-73
2022/09/13 01:23:38;;;;;;;;;;;;;;;;;;1020849;28;20275;-73
2022/09/13 01:24:09;;;;;;;;;;;;;;;;;;1020746;28;19962;-73
2022/09/13 01:24:39;;;;;;;;;;;;;;;;;;1025203;28;19969;-73
2022/09/13 01:25:10;;;;;;;;;;;;;;;;;;1021224;28;19915;-73
2022/09/13 01:25:40;;;;;;;;;;;;;;;;;;1022746;29;19919;-73
2022/09/13 01:26:10;;;;;;;;;;;;;;;;;;1018866;29;20375;-73
2022/09/13 01:26:41;;;;;;;;;;;;;;;;;;1016354;29;19921;-73
2022/09/13 01:27:11;;;;;;;;;;;;;;;;;;1014560;29;19911;-73
2022/09/13 01:27:41;;;;;;;;;;;;;;;;;;1020605;29;19918;-73
2022/09/13 01:28:12;;;;;;;;;;;;;;;;;;1018525;29;20521;-74
2022/09/13 01:28:42;;;;;;;;;;;;;;;;;;1024298;28;19958;-73
2022/09/13 01:29:12;;;;;;;;;;;;;;;;;;1020161;28;19954;-73
2022/09/13 01:29:43;;;;;;;;;;;;;;;;;;1020183;29;19926;-73
2022/09/13 01:30:14;;;;;;;;;;;;;;;;;;1019485;28;19910;-73
2022/09/13 01:30:44;;;;;;;;;;;;;;;;;;1025048;28;20001;-74
2022/09/13 01:31:15;;;;;;;;;;;;;;;;;;1022107;28;19974;-73
2022/09/13 01:31:45;;;;;;;;;;;;;;;;;;1026578;28;19914;-73
2022/09/13 01:32:15;;;;;;;;;;;;;;;;;;1009081;28;20228;-73
2022/09/13 01:32:46;;;;;;;;;;;;;;;;;;1007796;29;20224;-73
2022/09/13 01:33:16;;;;;;;;;;;;;;;;;;1006790;29;20211;-73
2022/09/13 01:33:47;;;;;;;;;;;;;;;;;;1008091;29;19962;-73
2022/09/13 01:34:17;;;;;;;;;;;;;;;;;;1007372;29;20321;-74
2022/09/13 01:34:47;;;;;;;;;;;;;;;;;;1012402;28;20155;-73
2022/09/13 01:35:18;;;;;;;;;;;;;;;;;;1009805;28;20001;-72
2022/09/13 01:35:48;;;;;;;;;;;;;;;;;;1007189;29;19914;-73
2022/09/13 01:36:19;;;;;;;;;;;;;;;;;;1005251;29;20022;-74
2022/09/13 01:36:49;;;;;;;;;;;;;;;;;;1008249;28;20280;-74
2022/09/13 01:37:20;;;;;;;;;;;;;;;;;;1007162;28;20230;-74
2022/09/13 01:37:50;;;;;;;;;;;;;;;;;;1007606;29;19934;-75
2022/09/13 01:38:21;;;;;;;;;;;;;;;;;;1009091;28;19929;-74
2022/09/13 01:38:51;;;;;;;;;;;;;;;;;;1006027;28;20461;-75
2022/09/13 01:39:21;;;;;;;;;;;;;;;;;;1007879;29;20146;-74
2022/09/13 01:39:52;;;;;;;;;;;;;;;;;;1007536;29;20151;-74
2022/09/13 01:40:23;;;;;;;;;;;;;;;;;;1007866;28;20347;-74
2022/09/13 01:40:53;;;;;;;;;;;;;;;;;;999878;29;19929;-74
2022/09/13 01:41:23;;;;;;;;;;;;;;;;;;1006800;28;19911;-74
2022/09/13 01:41:54;;;;;;;;;;;;;;;;;;1010803;28;20041;-74
2022/09/13 01:42:24;;;;;;;;;;;;;;;;;;1010355;28;19960;-74
2022/09/13 01:42:54;;;;;;;;;;;;;;;;;;1012843;28;19914;-75
2022/09/13 01:43:25;;;;;;;;;;;;;;;;;;1013018;28;20158;-74
2022/09/13 01:43:58;;;;;;;;;;;;;;;;;;1012734;28;20473;-75
2022/09/13 01:45:47;;;;;;;;;;;;;;;;;;1003620;29;20408;-75
2022/09/13 01:46:20;;;;;;;;;;;;;;;;;;1030485;23;20958;-74
2022/09/13 01:47:25;;;;;;;;;;;;;;;;;;1006856;29;20034;-74
2022/09/13 01:47:55;;;;;;;;;;;;;;;;;;1008868;29;20185;-74
2022/09/13 01:48:25;;;;;;;;;;;;;;;;;;1009252;29;20321;-74
2022/09/13 01:48:56;;;;;;;;;;;;;;;;;;1010022;29;19992;-75
2022/09/13 01:49:26;;;;;;;;;;;;;;;;;;1010467;29;20113;-75
2022/09/13 01:49:56;;;;;;;;;;;;;;;;;;1010698;29;20213;-74
2022/09/13 01:50:27;;;;;;;;;;;;;;;;;;1009479;29;19918;-74
2022/09/13 01:50:58;;;;;;;;;;;;;;;;;;1010652;28;19953;-76
2022/09/13 01:51:28;;;;;;;;;;;;;;;;;;1011033;28;19946;-74
2022/09/13 01:51:59;;;;;;;;;;;;;;;;;;1010721;28;20130;-75
2022/09/13 01:52:29;;;;;;;;;;;;;;;;;;1010143;29;20637;-75
2022/09/13 01:53:02;;;;;;;;;;;;;;;;;;1012229;29;19922;-75
2022/09/13 01:53:32;;;;;;;;;;;;;;;;;;1007864;29;20193;-75
2022/09/13 01:54:03;;;;;;;;;;;;;;;;;;1006990;29;20084;-74
2022/09/13 01:54:33;;;;;;;;;;;;;;;;;;1005212;29;20364;-75
2022/09/13 01:55:04;;;;;;;;;;;;;;;;;;1006633;29;19911;-74
2022/09/13 01:55:34;;;;;;;;;;;;;;;;;;1005146;29;19911;-75
2022/09/13 01:56:04;;;;;;;;;;;;;;;;;;1001973;29;20768;-74
2022/09/13 01:56:35;;;;;;;;;;;;;;;;;;1006480;29;20049;-74
2022/09/13 01:57:05;;;;;;;;;;;;;;;;;;1006631;29;19911;-74
2022/09/13 01:57:35;;;;;;;;;;;;;;;;;;1005630;29;20354;-75
2022/09/13 01:58:05;;;;;;;;;;;;;;;;;;1006115;29;19914;-75
2022/09/13 01:58:37;;;;;;;;;;;;;;;;;;1005931;29;19911;-75
2022/09/13 01:59:08;;;;;;;;;;;;;;;;;;1006379;29;19910;-76
2022/09/13 01:59:39;;;;;;;;;;;;;;;;;;1009384;29;20046;-76
2022/09/13 02:00:09;;;;;;;;;;;;;;;;;;1010908;29;19911;-75
2022/09/13 02:00:39;;;;;;;;;;;;;;;;;;1012026;29;20278;-75
2022/09/13 02:01:10;;;;;;;;;;;;;;;;;;1009616;29;20310;-76
2022/09/13 02:01:40;;;;;;;;;;;;;;;;;;1011442;29;20275;-76
2022/09/13 02:02:10;;;;;;;;;;;;;;;;;;1008616;29;19965;-75
2022/09/13 02:02:41;;;;;;;;;;;;;;;;;;1010069;29;20280;-75
2022/09/13 02:03:11;;;;;;;;;;;;;;;;;;1008902;29;20466;-75
2022/09/13 02:03:41;;;;;;;;;;;;;;;;;;1008282;29;20613;-75
2022/09/13 02:04:12;;;;;;;;;;;;;;;;;;1006072;29;20257;-75
2022/09/13 02:04:43;;;;;;;;;;;;;;;;;;1005336;29;19974;-75
2022/09/13 02:05:13;;;;;;;;;;;;;;;;;;1006577;29;19922;-75
2022/09/13 02:05:47;;;;;;;;;;;;;;;;;;1008331;29;20271;-75
2022/09/13 02:06:17;;;;;;;;;;;;;;;;;;1006684;29;20536;-76
2022/09/13 02:06:48;;;;;;;;;;;;;;;;;;1012225;28;20079;-76
2022/09/13 02:07:19;;;;;;;;;;;;;;;;;;1011298;29;19922;-76
2022/09/13 02:07:49;;;;;;;;;;;;;;;;;;1010916;29;19914;-75
2022/09/13 02:08:20;;;;;;;;;;;;;;;;;;1008199;29;20469;-75
2022/09/13 02:08:50;;;;;;;;;;;;;;;;;;1009854;29;20291;-76
2022/09/13 02:09:21;;;;;;;;;;;;;;;;;;1007094;29;20850;-75
2022/09/13 02:09:52;;;;;;;;;;;;;;;;;;1008030;29;20031;-75
2022/09/13 02:10:22;;;;;;;;;;;;;;;;;;1008126;29;20993;-75
2022/09/13 02:10:52;;;;;;;;;;;;;;;;;;1006754;29;20069;-75
2022/09/13 02:11:23;;;;;;;;;;;;;;;;;;1008599;29;20071;-76
2022/09/13 02:11:53;;;;;;;;;;;;;;;;;;1009738;29;20379;-75
2022/09/13 02:12:24;;;;;;;;;;;;;;;;;;1009203;29;19914;-75
2022/09/13 02:12:54;;;;;;;;;;;;;;;;;;1012060;29;20222;-75
2022/09/13 02:13:24;;;;;;;;;;;;;;;;;;1007845;29;19915;-74
2022/09/13 02:13:55;;;;;;;;;;;;;;;;;;1009595;29;21715;-75
2022/09/13 02:14:25;;;;;;;;;;;;;;;;;;1009569;29;20025;-75
2022/09/13 02:14:56;;;;;;;;;;;;;;;;;;1006838;29;19919;-74
2022/09/13 02:15:26;;;;;;;;;;;;;;;;;;1009663;29;19994;-74
2022/09/13 02:15:57;;;;;;;;;;;;;;;;;;1009405;29;20396;-75
2022/09/13 02:16:27;;;;;;;;;;;;;;;;;;1008897;29;19966;-75
2022/09/13 02:16:57;;;;;;;;;;;;;;;;;;1010807;29;19952;-74
2022/09/13 02:17:28;;;;;;;;;;;;;;;;;;1007938;29;20413;-74
2022/09/13 02:17:58;;;;;;;;;;;;;;;;;;1007055;29;21018;-75
2022/09/13 02:18:28;;;;;;;;;;;;;;;;;;1007338;29;19915;-75
2022/09/13 02:18:59;;;;;;;;;;;;;;;;;;1010418;29;20406;-75
2022/09/13 02:19:30;;;;;;;;;;;;;;;;;;1011004;29;20625;-75
2022/09/13 02:20:01;;;;;;;;;;;;;;;;;;1009963;29;20466;-75
2022/09/13 02:20:31;;;;;;;;;;;;;;;;;;1010305;29;19946;-75
2022/09/13 02:21:02;;;;;;;;;;;;;;;;;;1007213;29;20462;-74
2022/09/13 02:21:32;;;;;;;;;;;;;;;;;;1009239;29;20414;-75
2022/09/13 02:22:03;;;;;;;;;;;;;;;;;;1011366;29;20397;-74
2022/09/13 02:22:33;;;;;;;;;;;;;;;;;;1007304;29;20415;-75
2022/09/13 02:23:04;;;;;;;;;;;;;;;;;;1007088;29;20199;-75
2022/09/13 02:23:34;;;;;;;;;;;;;;;;;;1009307;29;19918;-75
2022/09/13 02:24:05;;;;;;;;;;;;;;;;;;1006415;29;20853;-75
2022/09/13 02:24:35;;;;;;;;;;;;;;;;;;1010134;29;19982;-75
2022/09/13 02:25:09;;;;;;;;;;;;;;;;;;1008782;29;20269;-77
2022/09/13 02:25:39;;;;;;;;;;;;;;;;;;1008666;29;19915;-76
2022/09/13 02:26:09;;;;;;;;;;;;;;;;;;1007722;29;20559;-76
2022/09/13 02:26:40;;;;;;;;;;;;;;;;;;1007968;29;20195;-76
2022/09/13 02:27:10;;;;;;;;;;;;;;;;;;1009259;29;20240;-76
2022/09/13 02:27:40;;;;;;;;;;;;;;;;;;1010604;29;19918;-76
2022/09/13 02:28:11;;;;;;;;;;;;;;;;;;1008476;29;19915;-75
2022/09/13 02:28:41;;;;;;;;;;;;;;;;;;1009968;29;20464;-74
2022/09/13 02:29:11;;;;;;;;;;;;;;;;;;1008726;29;20348;-74
2022/09/13 02:29:42;;;;;;;;;;;;;;;;;;1010484;29;20099;-74
2022/09/13 02:30:12;;;;;;;;;;;;;;;;;;1011421;29;20359;-74
2022/09/13 02:30:42;;;;;;;;;;;;;;;;;;1011439;29;20690;-74
2022/09/13 02:31:13;;;;;;;;;;;;;;;;;;1010073;29;20033;-75
2022/09/13 02:31:46;;;;;;;;;;;;;;;;;;1009193;29;20059;-74
2022/09/13 02:32:16;;;;;;;;;;;;;;;;;;1004355;29;20018;-75
2022/09/13 02:32:48;;;;;;;;;;;;;;;;;;1003408;29;19915;-74
2022/09/13 02:33:18;;;;;;;;;;;;;;;;;;1007851;29;20343;-75
2022/09/13 02:33:49;;;;;;;;;;;;;;;;;;1010679;29;19961;-74
2022/09/13 02:34:19;;;;;;;;;;;;;;;;;;1009121;29;19919;-74
2022/09/13 02:34:50;;;;;;;;;;;;;;;;;;1013296;29;20752;-73
2022/09/13 02:35:20;;;;;;;;;;;;;;;;;;1008734;29;20208;-74
2022/09/13 02:35:51;;;;;;;;;;;;;;;;;;1010889;29;19948;-74
2022/09/13 02:36:21;;;;;;;;;;;;;;;;;;1010369;29;20224;-76
2022/09/13 02:37:55;;;;;;;;;;;;;;;;;;1010761;29;20029;-77
2022/09/13 02:38:31;;;;;;;;;;;;;;;;;;1006626;29;20049;-78
2022/09/13 02:39:17;;;;;;;;;;;;;;;;;;1035742;23;19927;-77
2022/09/13 02:39:51;;;;;;;;;;;;;;;;;;1005314;29;20300;-78
2022/09/13 02:40:22;;;;;;;;;;;;;;;;;;1008895;29;20426;-76
2022/09/13 02:40:52;;;;;;;;;;;;;;;;;;1010929;29;19914;-76
2022/09/13 02:41:25;;;;;;;;;;;;;;;;;;1011213;29;19919;-75
2022/09/13 02:41:55;;;;;;;;;;;;;;;;;;1009986;29;19941;-73
2022/09/13 02:42:25;;;;;;;;;;;;;;;;;;1008875;29;19919;-76
2022/09/13 02:42:59;;;;;;;;;;;;;;;;;;1007152;29;19915;-73
2022/09/13 02:43:30;;;;;;;;;;;;;;;;;;1006548;29;20013;-74
2022/09/13 02:44:00;;;;;;;;;;;;;;;;;;1007203;29;19917;-73
2022/09/13 02:44:31;;;;;;;;;;;;;;;;;;1006759;29;20151;-73
2022/09/13 02:45:01;;;;;;;;;;;;;;;;;;1006798;29;19936;-74
2022/09/13 02:45:32;;;;;;;;;;;;;;;;;;1005979;29;20126;-73
2022/09/13 02:46:02;;;;;;;;;;;;;;;;;;1008514;29;20742;-74
2022/09/13 02:46:33;;;;;;;;;;;;;;;;;;1010346;29;19918;-73
2022/09/13 02:47:04;;;;;;;;;;;;;;;;;;1011217;29;20229;-74
2022/09/13 02:47:35;;;;;;;;;;;;;;;;;;1006406;29;20688;-74
2022/09/13 02:48:06;;;;;;;;;;;;;;;;;;1009087;29;20683;-74
2022/09/13 02:48:37;;;;;;;;;;;;;;;;;;1007339;29;19922;-75
2022/09/13 02:49:08;;;;;;;;;;;;;;;;;;1011854;29;19918;-74
2022/09/13 02:49:39;;;;;;;;;;;;;;;;;;1013578;29;20049;-79
2022/09/13 02:50:10;;;;;;;;;;;;;;;;;;1011173;29;19910;-77
2022/09/13 02:50:40;;;;;;;;;;;;;;;;;;1006650;29;19915;-74
2022/09/13 02:51:11;;;;;;;;;;;;;;;;;;1002152;29;19980;-74
2022/09/13 02:51:41;;;;;;;;;;;;;;;;;;1001741;29;19915;-74
2022/09/13 02:52:11;;;;;;;;;;;;;;;;;;1005158;29;19942;-74
2022/09/13 02:52:42;;;;;;;;;;;;;;;;;;1012410;29;20333;-74
2022/09/13 02:53:12;;;;;;;;;;;;;;;;;;1011211;29;19918;-74
2022/09/13 02:53:43;;;;;;;;;;;;;;;;;;1010394;29;20119;-73
2022/09/13 02:54:13;;;;;;;;;;;;;;;;;;1008257;29;20314;-75
2022/09/13 02:54:44;;;;;;;;;;;;;;;;;;1008831;29;20385;-74
2022/09/13 02:55:14;;;;;;;;;;;;;;;;;;1008966;29;19998;-73
2022/09/13 02:55:45;;;;;;;;;;;;;;;;;;1008472;29;20259;-74
2022/09/13 02:56:17;;;;;;;;;;;;;;;;;;1002340;29;19930;-74
2022/09/13 02:56:48;;;;;;;;;;;;;;;;;;1005855;29;19945;-73
2022/09/13 02:57:18;;;;;;;;;;;;;;;;;;1005102;29;20407;-73
2022/09/13 02:57:49;;;;;;;;;;;;;;;;;;1007223;29;20312;-73
2022/09/13 02:58:19;;;;;;;;;;;;;;;;;;1009061;29;20677;-73
2022/09/13 02:58:50;;;;;;;;;;;;;;;;;;1009756;29;20053;-74
2022/09/13 02:59:20;;;;;;;;;;;;;;;;;;1012265;29;20032;-73
2022/09/13 02:59:51;;;;;;;;;;;;;;;;;;1013921;29;19919;-73
2022/09/13 03:00:22;;;;;;;;;;;;;;;;;;1010210;29;20248;-74
2022/09/13 03:00:52;;;;;;;;;;;;;;;;;;1013963;29;20208;-73
2022/09/13 03:01:22;;;;;;;;;;;;;;;;;;1014292;29;19945;-74
2022/09/13 03:01:53;;;;;;;;;;;;;;;;;;1010249;29;19918;-74
2022/09/13 03:02:26;;;;;;;;;;;;;;;;;;1011139;29;20354;-76
2022/09/13 03:02:57;;;;;;;;;;;;;;;;;;1007994;29;19910;-74
2022/09/13 03:03:27;;;;;;;;;;;;;;;;;;1006372;29;20407;-75
2022/09/13 03:04:03;;;;;;;;;;;;;;;;;;1011788;29;19971;-75
2022/09/13 03:04:34;;;;;;;;;;;;;;;;;;1008664;29;20160;-75
2022/09/13 03:05:05;;;;;;;;;;;;;;;;;;1008349;29;20476;-75
2022/09/13 03:05:35;;;;;;;;;;;;;;;;;;1012067;29;20615;-76
2022/09/13 03:06:06;;;;;;;;;;;;;;;;;;1012325;29;19915;-75
2022/09/13 03:06:37;;;;;;;;;;;;;;;;;;1014156;29;20247;-75
2022/09/13 03:07:08;;;;;;;;;;;;;;;;;;1009590;29;20278;-75
2022/09/13 03:07:38;;;;;;;;;;;;;;;;;;1015209;29;19911;-76
2022/09/13 03:08:15;;;;;;;;;;;;;;;;;;1012178;29;19914;-76
2022/09/13 03:08:55;;;;;;;;;;;;;;;;;;1011975;29;20406;-74
2022/09/13 03:09:26;;;;;;;;;;;;;;;;;;1005125;29;19915;-74
2022/09/13 03:09:57;;;;;;;;;;;;;;;;;;1011673;29;20197;-74
2022/09/13 03:10:27;;;;;;;;;;;;;;;;;;1011987;29;20016;-76
2022/09/13 03:10:58;;;;;;;;;;;;;;;;;;1008555;29;19926;-75
2022/09/13 03:11:29;;;;;;;;;;;;;;;;;;1009459;29;20084;-74
2022/09/13 03:12:00;;;;;;;;;;;;;;;;;;1010643;28;19970;-75
2022/09/13 03:12:33;;;;;;;;;;;;;;;;;;1007791;29;19915;-74
2022/09/13 03:13:04;;;;;;;;;;;;;;;;;;1009935;29;20438;-74
2022/09/13 03:13:34;;;;;;;;;;;;;;;;;;1007216;29;19919;-74
2022/09/13 03:14:05;;;;;;;;;;;;;;;;;;1006533;29;19911;-74
2022/09/13 03:14:35;;;;;;;;;;;;;;;;;;1006041;29;19915;-74
2022/09/13 03:15:05;;;;;;;;;;;;;;;;;;1005282;29;20417;-75
2022/09/13 03:15:36;;;;;;;;;;;;;;;;;;1009583;29;20436;-75
2022/09/13 03:16:06;;;;;;;;;;;;;;;;;;1007113;29;20453;-75
2022/09/13 03:16:37;;;;;;;;;;;;;;;;;;1009255;29;20283;-75
2022/09/13 03:17:08;;;;;;;;;;;;;;;;;;1009000;28;19915;-75
2022/09/13 03:17:38;;;;;;;;;;;;;;;;;;1009028;29;19917;-75
2022/09/13 03:18:09;;;;;;;;;;;;;;;;;;1009608;29;20298;-75
2022/09/13 03:18:39;;;;;;;;;;;;;;;;;;1009510;29;20458;-74
2022/09/13 03:19:10;;;;;;;;;;;;;;;;;;1008486;29;19915;-74
2022/09/13 03:19:40;;;;;;;;;;;;;;;;;;1007878;29;20209;-75
2022/09/13 03:20:11;;;;;;;;;;;;;;;;;;1005475;29;20822;-75
2022/09/13 03:20:41;;;;;;;;;;;;;;;;;;1008029;29;19918;-75
2022/09/13 03:21:11;;;;;;;;;;;;;;;;;;1007258;29;19915;-75
2022/09/13 03:21:42;;;;;;;;;;;;;;;;;;1011770;29;19929;-75
2022/09/13 03:22:12;;;;;;;;;;;;;;;;;;1010390;28;19915;-76
2022/09/13 03:22:42;;;;;;;;;;;;;;;;;;1011252;29;20461;-73
2022/09/13 03:23:13;;;;;;;;;;;;;;;;;;1010567;29;20371;-74
2022/09/13 03:23:43;;;;;;;;;;;;;;;;;;1007773;29;20474;-74
2022/09/13 03:24:14;;;;;;;;;;;;;;;;;;1008324;29;20275;-73
2022/09/13 03:24:44;;;;;;;;;;;;;;;;;;1012442;29;19910;-74
2022/09/13 03:25:15;;;;;;;;;;;;;;;;;;1009690;29;20014;-74
2022/09/13 03:25:45;;;;;;;;;;;;;;;;;;1012103;29;19914;-74
2022/09/13 03:26:16;;;;;;;;;;;;;;;;;;1012412;29;19918;-75
2022/09/13 03:26:47;;;;;;;;;;;;;;;;;;1011409;29;20216;-75
2022/09/13 03:27:17;;;;;;;;;;;;;;;;;;1009431;29;20331;-74
2022/09/13 03:27:47;;;;;;;;;;;;;;;;;;1007794;29;20346;-74
2022/09/13 03:28:18;;;;;;;;;;;;;;;;;;1007487;29;19918;-74
2022/09/13 03:28:48;;;;;;;;;;;;;;;;;;1010635;29;20761;-74
2022/09/13 03:29:20;;;;;;;;;;;;;;;;;;1010404;29;21055;-74
2022/09/13 03:29:50;;;;;;;;;;;;;;;;;;1009832;29;20008;-75
2022/09/13 03:30:21;;;;;;;;;;;;;;;;;;1009297;29;20368;-75
2022/09/13 03:30:51;;;;;;;;;;;;;;;;;;1007947;29;20761;-75
2022/09/13 03:31:22;;;;;;;;;;;;;;;;;;1007275;29;20311;-75
2022/09/13 03:31:53;;;;;;;;;;;;;;;;;;1008672;29;20580;-75